createdAt,value
2024-05-09T00:06:16.974Z,100607.06
2024-05-09T00:15:50.913Z,100609.58
2024-05-09T00:25:22.802Z,100612.39
2024-05-09T00:34:57.000Z,100602.80
2024-05-09T00:44:32.669Z,100594.28
2024-05-09T00:54:04.700Z,100594.34
2024-05-09T01:03:39.036Z,100591.84
2024-05-09T01:13:13.001Z,100583.80
2024-05-09T01:22:46.001Z,100588.41
2024-05-09T01:32:21.555Z,100579.73
2024-05-09T01:41:53.765Z,100582.81
2024-05-09T01:51:27.606Z,100580.38
2024-05-09T02:01:01.124Z,100586.55
2024-05-09T02:10:35.162Z,100588.05
2024-05-09T02:20:16.076Z,100583.70
2024-05-09T02:29:44.767Z,100594.23
2024-05-09T02:39:17.260Z,100596.27
2024-05-09T02:48:51.634Z,100596.73
2024-05-09T02:58:25.377Z,100592.95
2024-05-09T03:08:00.544Z,100589.88
2024-05-09T03:17:34.416Z,100582.69
2024-05-09T03:27:07.367Z,100600.34
2024-05-09T03:36:40.574Z,100594.52
2024-05-09T03:46:12.391Z,100599.27
2024-05-09T03:55:46.296Z,100600.03
2024-05-09T04:05:19.984Z,100602.05
2024-05-09T04:14:53.644Z,100606.22
2024-05-09T04:24:27.448Z,100620.44
2024-05-09T04:34:03.121Z,100617.58
2024-05-09T04:43:34.905Z,100622.96
2024-05-09T04:53:09.764Z,100623.89
2024-05-09T05:02:42.635Z,100624.00
2024-05-09T05:12:16.997Z,100611.73
2024-05-09T05:21:52.185Z,100618.47
2024-05-09T05:31:26.212Z,100632.81
2024-05-09T05:40:58.720Z,100640.01
2024-05-09T05:50:36.293Z,100642.38
2024-05-09T06:00:09.573Z,100647.45
2024-05-09T06:09:41.997Z,100649.27
2024-05-09T06:10:44.468Z,100654.70
2024-05-09T06:11:46.949Z,100658.14
2024-05-09T06:12:50.892Z,100651.50
2024-05-09T06:13:53.201Z,100654.07
2024-05-09T06:14:57.276Z,100653.04
2024-05-09T06:15:59.503Z,100650.45
2024-05-09T06:17:01.973Z,100649.85
2024-05-09T06:18:04.521Z,100661.09
2024-05-09T06:19:06.842Z,100658.76
2024-05-09T06:20:13.201Z,100655.17
2024-05-09T06:29:41.856Z,100645.19
2024-05-09T06:30:45.829Z,100652.18
2024-05-09T06:31:49.511Z,100647.59
2024-05-09T06:41:18.757Z,100643.66
2024-05-09T06:42:22.819Z,100643.70
2024-05-09T06:43:25.112Z,100649.00
2024-05-09T06:44:27.651Z,100650.56
2024-05-09T06:45:29.972Z,100653.54
2024-05-09T06:46:32.420Z,100650.44
2024-05-09T06:47:36.691Z,100649.89
2024-05-09T06:48:40.639Z,100651.27
2024-05-09T06:49:42.761Z,100653.97
2024-05-09T06:50:45.175Z,100653.17
2024-05-09T06:51:47.509Z,100656.67
2024-05-09T06:52:51.559Z,100657.41
2024-05-09T06:53:53.860Z,100659.66
2024-05-09T06:54:56.246Z,100654.95
2024-05-09T06:56:00.301Z,100652.72
2024-05-09T06:57:02.520Z,100659.81
2024-05-09T06:58:05.036Z,100648.16
2024-05-09T06:59:09.074Z,100655.78
2024-05-09T07:00:15.426Z,100660.13
2024-05-09T07:01:13.822Z,100659.59
2024-05-09T07:02:16.281Z,100665.31
2024-05-09T07:03:19.388Z,100657.23
2024-05-09T07:04:21.177Z,100659.48
2024-05-09T07:05:25.184Z,100661.67
2024-05-09T07:06:27.440Z,100664.98
2024-05-09T07:07:29.898Z,100666.48
2024-05-09T07:08:32.399Z,100663.20
2024-05-09T07:09:34.783Z,100668.34
2024-05-09T07:10:37.424Z,100666.19
2024-05-09T07:11:39.639Z,100663.53
2024-05-09T07:12:43.605Z,100662.81
2024-05-09T07:13:47.652Z,100660.83
2024-05-09T07:14:49.899Z,100667.40
2024-05-09T07:15:53.906Z,100660.23
2024-05-09T07:16:57.940Z,100655.78
2024-05-09T07:18:01.894Z,100649.47
2024-05-09T07:19:04.194Z,100659.12
2024-05-09T07:20:07.014Z,100654.63
2024-05-09T07:21:08.979Z,100651.09
2024-05-09T07:22:12.931Z,100654.76
2024-05-09T07:23:15.656Z,100654.59
2024-05-09T07:24:17.692Z,100656.06
2024-05-09T07:25:21.659Z,100651.66
2024-05-09T07:26:23.944Z,100648.23
2024-05-09T07:27:26.336Z,100648.44
2024-05-09T07:28:28.756Z,100644.88
2024-05-09T07:29:31.636Z,100651.95
2024-05-09T07:30:35.411Z,100654.55
2024-05-09T07:31:37.536Z,100650.23
2024-05-09T07:32:40.078Z,100653.03
2024-05-09T07:33:42.528Z,100645.47
2024-05-09T07:34:46.564Z,100647.20
2024-05-09T07:35:50.427Z,100649.16
2024-05-09T07:36:52.770Z,100646.23
2024-05-09T07:37:55.233Z,100647.45
2024-05-09T07:38:57.524Z,100647.95
2024-05-09T07:39:59.963Z,100637.78
2024-05-09T07:41:02.477Z,100640.70
2024-05-09T07:42:06.597Z,100640.68
2024-05-09T07:43:09.128Z,100637.47
2024-05-09T07:44:12.593Z,100635.73
2024-05-09T07:45:29.504Z,100643.41
2024-05-09T07:46:48.281Z,100639.06
2024-05-09T07:48:13.332Z,100643.53
2024-05-09T07:49:13.186Z,100638.69
2024-05-09T07:51:31.714Z,100645.63
2024-05-09T07:52:32.946Z,100644.84
2024-05-09T07:53:17.048Z,100644.88
2024-05-09T07:53:44.213Z,100647.28
2024-05-09T07:54:44.446Z,100645.73
2024-05-09T07:55:48.447Z,100648.20
2024-05-09T07:56:50.893Z,100648.42
2024-05-09T07:57:54.766Z,100649.78
2024-05-09T07:58:57.442Z,100655.05
2024-05-09T07:59:59.695Z,100648.91
2024-05-09T08:01:02.213Z,100647.84
2024-05-09T08:02:06.467Z,100653.98
2024-05-09T08:03:08.536Z,100648.08
2024-05-09T08:04:12.639Z,100653.63
2024-05-09T08:05:16.688Z,100647.31
2024-05-09T08:06:18.781Z,100641.91
2024-05-09T08:07:22.858Z,100647.38
2024-05-09T08:08:25.117Z,100648.80
2024-05-09T08:09:29.153Z,100647.11
2024-05-09T08:10:31.608Z,100642.62
2024-05-09T08:11:34.000Z,100644.88
2024-05-09T08:12:36.422Z,100645.95
2024-05-09T08:13:38.836Z,100647.10
2024-05-09T08:14:41.289Z,100649.83
2024-05-09T08:15:43.778Z,100647.33
2024-05-09T08:16:46.223Z,100648.23
2024-05-09T08:17:48.820Z,100643.23
2024-05-09T08:18:51.225Z,100644.64
2024-05-09T08:19:55.184Z,100652.03
2024-05-09T08:20:59.115Z,100648.81
2024-05-09T08:22:01.478Z,100642.32
2024-05-09T08:23:05.600Z,100640.31
2024-05-09T08:24:07.812Z,100639.02
2024-05-09T08:25:12.764Z,100636.84
2024-05-09T08:26:12.769Z,100641.56
2024-05-09T08:27:15.178Z,100639.23
2024-05-09T08:28:17.812Z,100637.80
2024-05-09T08:29:20.062Z,100634.52
2024-05-09T08:30:29.023Z,100636.52
2024-05-09T08:31:26.730Z,100637.39
2024-05-09T08:32:30.625Z,100638.09
2024-05-09T08:33:33.237Z,100634.99
2024-05-09T08:34:35.471Z,100634.23
2024-05-09T08:35:39.491Z,100633.98
2024-05-09T08:36:41.866Z,100633.52
2024-05-09T08:37:44.360Z,100633.54
2024-05-09T08:38:46.763Z,100633.31
2024-05-09T08:39:49.261Z,100631.20
2024-05-09T08:40:51.702Z,100633.83
2024-05-09T08:41:54.136Z,100630.84
2024-05-09T08:42:56.614Z,100629.84
2024-05-09T08:44:00.677Z,100630.63
2024-05-09T08:45:04.572Z,100627.55
2024-05-09T08:46:08.543Z,100631.11
2024-05-09T08:47:12.490Z,100629.59
2024-05-09T08:48:16.736Z,100629.20
2024-05-09T08:49:18.755Z,100633.89
2024-05-09T08:50:28.352Z,100622.40
2024-05-09T08:51:23.567Z,100622.13
2024-05-09T08:52:27.621Z,100627.29
2024-05-09T09:02:00.896Z,100626.66
2024-05-09T09:03:04.894Z,100629.19
2024-05-09T09:04:07.349Z,100624.17
2024-05-09T09:05:09.844Z,100625.38
2024-05-09T09:06:12.257Z,100618.30
2024-05-09T09:07:14.658Z,100622.82
2024-05-09T09:08:17.025Z,100619.41
2024-05-09T09:09:21.080Z,100617.73
2024-05-09T09:10:29.116Z,100621.03
2024-05-09T09:11:28.958Z,100614.69
2024-05-09T09:12:31.232Z,100610.45
2024-05-09T09:13:35.336Z,100614.81
2024-05-09T09:14:39.181Z,100614.26
2024-05-09T09:15:41.473Z,100614.33
2024-05-09T09:16:43.935Z,100611.03
2024-05-09T09:17:46.455Z,100611.75
2024-05-09T09:18:49.243Z,100614.22
2024-05-09T09:19:51.911Z,100614.55
2024-05-09T09:20:54.202Z,100610.28
2024-05-09T09:21:58.287Z,100605.20
2024-05-09T09:23:00.722Z,100612.78
2024-05-09T09:24:03.200Z,100611.57
2024-05-09T09:25:05.882Z,100607.30
2024-05-09T09:26:09.800Z,100613.67
2024-05-09T09:27:12.156Z,100606.92
2024-05-09T09:28:14.637Z,100606.30
2024-05-09T09:37:47.204Z,100608.08
2024-05-09T09:38:49.757Z,100604.58
2024-05-09T09:39:53.864Z,100611.41
2024-05-09T09:40:56.353Z,100606.37
2024-05-09T09:42:00.301Z,100602.20
2024-05-09T09:43:02.691Z,100607.55
2024-05-09T09:44:05.111Z,100607.78
2024-05-09T09:45:09.211Z,100603.73
2024-05-09T09:46:12.513Z,100603.77
2024-05-09T09:47:15.730Z,100603.92
2024-05-09T09:48:17.946Z,100595.03
2024-05-09T09:49:20.412Z,100596.88
2024-05-09T09:50:27.211Z,100597.31
2024-05-09T09:51:27.263Z,100597.17
2024-05-09T09:52:29.590Z,100595.22
2024-05-09T09:53:32.021Z,100593.72
2024-05-09T09:54:34.448Z,100597.23
2024-05-09T09:55:36.846Z,100594.31
2024-05-09T09:56:39.307Z,100593.09
2024-05-09T09:57:43.431Z,100591.88
2024-05-09T09:58:45.796Z,100595.16
2024-05-09T09:59:49.768Z,100597.62
2024-05-09T10:00:53.814Z,100598.16
2024-05-09T10:01:56.171Z,100597.06
2024-05-09T10:03:00.336Z,100594.94
2024-05-09T10:04:04.215Z,100597.06
2024-05-09T10:05:06.714Z,100592.28
2024-05-09T10:06:09.118Z,100593.55
2024-05-09T10:07:11.570Z,100596.63
2024-05-09T10:08:14.147Z,100599.25
2024-05-09T10:09:16.567Z,100594.94
2024-05-09T10:10:23.069Z,100592.85
2024-05-09T10:11:21.633Z,100590.91
2024-05-09T10:12:24.025Z,100592.00
2024-05-09T10:13:28.036Z,100590.52
2024-05-09T10:14:32.019Z,100591.78
2024-05-09T10:15:36.013Z,100585.41
2024-05-09T10:16:38.326Z,100589.39
2024-05-09T10:17:40.903Z,100582.79
2024-05-09T10:18:44.988Z,100584.56
2024-05-09T10:19:48.951Z,100587.98
2024-05-09T10:20:51.299Z,100587.93
2024-05-09T10:21:53.921Z,100586.28
2024-05-09T10:22:56.307Z,100585.62
2024-05-09T10:23:58.803Z,100586.66
2024-05-09T10:25:02.804Z,100583.03
2024-05-09T10:26:03.847Z,100582.91
2024-05-09T10:27:07.997Z,100577.95
2024-05-09T10:28:10.331Z,100579.92
2024-05-09T10:29:13.027Z,100575.80
2024-05-09T10:30:21.628Z,100579.66
2024-05-09T10:31:23.051Z,100581.09
2024-05-09T10:32:25.461Z,100580.20
2024-05-09T10:33:28.023Z,100579.30
2024-05-09T10:34:30.383Z,100577.86
2024-05-09T10:35:32.825Z,100579.07
2024-05-09T10:36:35.287Z,100578.67
2024-05-09T10:37:37.736Z,100578.14
2024-05-09T10:38:40.200Z,100578.92
2024-05-09T10:39:42.742Z,100581.34
2024-05-09T10:40:45.232Z,100574.69
2024-05-09T10:41:48.080Z,100570.58
2024-05-09T10:42:52.220Z,100570.05
2024-05-09T10:43:54.533Z,100576.41
2024-05-09T10:44:57.246Z,100566.98
2024-05-09T10:45:59.713Z,100561.44
2024-05-09T10:47:02.123Z,100565.38
2024-05-09T10:48:04.750Z,100563.48
2024-05-09T10:49:08.059Z,100559.61
2024-05-09T10:50:18.040Z,100557.00
2024-05-09T10:51:14.170Z,100558.73
2024-05-09T10:52:16.664Z,100557.20
2024-05-09T10:53:20.679Z,100558.02
2024-05-09T10:54:23.132Z,100552.48
2024-05-09T10:55:25.989Z,100555.58
2024-05-09T10:56:30.313Z,100553.25
2024-05-09T10:57:32.645Z,100552.98
2024-05-09T10:58:35.074Z,100548.22
2024-05-09T10:59:37.506Z,100552.03
2024-05-09T11:00:41.604Z,100550.13
2024-05-09T11:01:44.253Z,100552.89
2024-05-09T11:02:46.610Z,100548.64
2024-05-09T11:03:49.189Z,100549.13
2024-05-09T11:04:51.541Z,100553.18
2024-05-09T11:05:55.606Z,100549.72
2024-05-09T11:07:00.496Z,100553.22
2024-05-09T11:08:01.872Z,100552.46
2024-05-09T11:09:04.339Z,100550.02
2024-05-09T11:10:09.735Z,100553.81
2024-05-09T11:11:09.360Z,100545.30
2024-05-09T11:12:11.819Z,100547.78
2024-05-09T11:13:15.910Z,100543.09
2024-05-09T11:14:18.176Z,100543.03
2024-05-09T11:15:20.700Z,100540.33
2024-05-09T11:16:23.859Z,100539.84
2024-05-09T11:17:26.480Z,100542.90
2024-05-09T11:18:30.603Z,100540.44
2024-05-09T11:19:31.427Z,100536.11
2024-05-09T11:20:35.254Z,100534.41
2024-05-09T11:21:36.463Z,100530.16
2024-05-09T11:22:38.874Z,100532.67
2024-05-09T11:23:42.935Z,100534.79
2024-05-09T11:24:46.936Z,100533.53
2024-05-09T11:25:50.897Z,100532.52
2024-05-09T11:26:53.219Z,100534.29
2024-05-09T11:27:55.785Z,100529.83
2024-05-09T11:28:59.805Z,100533.13
2024-05-09T11:30:02.357Z,100527.22
2024-05-09T11:31:04.574Z,100525.06
2024-05-09T11:32:07.114Z,100522.67
2024-05-09T11:33:09.524Z,100524.20
2024-05-09T11:34:12.002Z,100521.35
2024-05-09T11:35:14.470Z,100520.76
2024-05-09T11:36:16.961Z,100517.16
2024-05-09T11:37:19.453Z,100514.39
2024-05-09T11:38:23.518Z,100515.11
2024-05-09T11:39:25.922Z,100515.61
2024-05-09T11:40:32.313Z,100507.21
2024-05-09T11:41:30.920Z,100511.27
2024-05-09T11:42:33.379Z,100507.08
2024-05-09T11:43:35.878Z,100501.25
2024-05-09T11:44:38.324Z,100505.95
2024-05-09T11:45:42.436Z,100505.19
2024-05-09T11:46:46.381Z,100505.19
2024-05-09T11:47:48.858Z,100501.53
2024-05-09T11:48:51.353Z,100501.89
2024-05-09T11:49:53.734Z,100503.20
2024-05-09T11:50:56.178Z,100504.39
2024-05-09T11:52:00.303Z,100497.50
2024-05-09T11:53:02.540Z,100499.06
2024-05-09T11:54:06.607Z,100491.94
2024-05-09T11:55:10.694Z,100499.27
2024-05-09T11:56:14.578Z,100494.68
2024-05-09T11:57:18.601Z,100488.58
2024-05-09T11:58:21.066Z,100487.92
2024-05-09T11:59:23.376Z,100492.44
2024-05-09T12:00:29.370Z,100489.20
2024-05-09T12:01:31.497Z,100491.34
2024-05-09T12:02:34.047Z,100483.99
2024-05-09T12:03:38.356Z,100483.58
2024-05-09T12:04:42.305Z,100478.91
2024-05-09T12:05:44.759Z,100475.28
2024-05-09T12:06:48.644Z,100479.09
2024-05-09T12:07:50.993Z,100481.48
2024-05-09T12:08:55.166Z,100483.66
2024-05-09T12:09:59.094Z,100478.66
2024-05-09T12:11:01.621Z,100477.85
2024-05-09T12:12:05.558Z,100482.02
2024-05-09T12:13:08.219Z,100482.53
2024-05-09T12:14:10.451Z,100477.38
2024-05-09T12:15:12.968Z,100480.37
2024-05-09T12:16:15.587Z,100475.70
2024-05-09T12:17:19.604Z,100479.77
2024-05-09T12:18:22.006Z,100479.44
2024-05-09T12:19:24.507Z,100481.20
2024-05-09T12:20:33.057Z,100474.72
2024-05-09T12:21:30.935Z,100480.97
2024-05-09T12:22:33.507Z,100474.02
2024-05-09T12:23:37.597Z,100479.11
2024-05-09T12:24:39.981Z,100472.31
2024-05-09T12:25:42.414Z,100473.67
2024-05-09T12:26:44.906Z,100478.97
2024-05-09T12:27:49.021Z,100473.81
2024-05-09T12:28:51.296Z,100475.67
2024-05-09T12:29:53.746Z,100475.84
2024-05-09T12:30:57.879Z,100470.13
2024-05-09T12:32:00.233Z,100469.11
2024-05-09T12:33:04.501Z,100474.22
2024-05-09T12:34:08.262Z,100472.73
2024-05-09T12:35:10.539Z,100476.21
2024-05-09T12:36:13.049Z,100470.01
2024-05-09T12:37:17.221Z,100461.78
2024-05-09T12:38:19.621Z,100464.09
2024-05-09T12:39:23.698Z,100470.33
2024-05-09T12:40:31.744Z,100467.95
2024-05-09T12:41:30.206Z,100464.45
2024-05-09T12:42:33.810Z,100460.48
2024-05-09T12:43:36.703Z,100463.81
2024-05-09T12:44:39.016Z,100460.73
2024-05-09T12:45:41.543Z,100457.72
2024-05-09T12:46:44.027Z,100460.69
2024-05-09T12:47:46.652Z,100456.59
2024-05-09T12:48:49.297Z,100459.34
2024-05-09T12:49:51.526Z,100452.03
2024-05-09T12:50:54.040Z,100452.24
2024-05-09T12:51:56.547Z,100455.81
2024-05-09T12:52:59.061Z,100446.52
2024-05-09T12:54:01.494Z,100453.79
2024-05-09T12:55:05.704Z,100455.09
2024-05-09T12:56:09.700Z,100451.83
2024-05-09T12:57:13.539Z,100452.80
2024-05-09T12:58:17.751Z,100445.80
2024-05-09T12:59:19.864Z,100444.89
2024-05-09T13:00:27.786Z,100448.12
2024-05-09T13:01:27.908Z,100444.75
2024-05-09T13:02:31.959Z,100444.14
2024-05-09T13:03:34.323Z,100442.36
2024-05-09T13:04:36.767Z,100441.21
2024-05-09T13:05:40.779Z,100443.17
2024-05-09T13:06:43.086Z,100437.33
2024-05-09T13:07:47.075Z,100436.33
2024-05-09T13:08:50.964Z,100436.69
2024-05-09T13:09:53.304Z,100435.16
2024-05-09T13:10:57.440Z,100429.28
2024-05-09T13:11:59.772Z,100433.16
2024-05-09T13:13:03.860Z,100433.47
2024-05-09T13:14:07.765Z,100432.17
2024-05-09T13:15:10.295Z,100432.19
2024-05-09T13:16:12.764Z,100431.65
2024-05-09T13:17:15.243Z,100428.02
2024-05-09T13:18:17.756Z,100427.13
2024-05-09T13:19:21.872Z,100425.95
2024-05-09T13:20:28.859Z,100425.26
2024-05-09T13:21:28.114Z,100422.77
2024-05-09T13:22:32.228Z,100419.05
2024-05-09T13:23:34.579Z,100413.86
2024-05-09T13:24:37.109Z,100411.31
2024-05-09T13:25:41.234Z,100408.06
2024-05-09T13:26:43.599Z,100409.66
2024-05-09T13:27:47.772Z,100411.10
2024-05-09T13:28:50.064Z,100414.80
2024-05-09T13:29:54.195Z,100414.45
2024-05-09T13:30:58.160Z,100411.04
2024-05-09T13:32:00.695Z,100408.73
2024-05-09T13:33:03.120Z,100404.88
2024-05-09T13:34:05.585Z,100403.06
2024-05-09T13:35:08.019Z,100405.08
2024-05-09T13:36:12.111Z,100406.09
2024-05-09T13:37:14.560Z,100400.96
2024-05-09T13:38:17.059Z,100410.25
2024-05-09T13:39:21.110Z,100399.82
2024-05-09T13:40:29.512Z,100399.89
2024-05-09T13:41:27.363Z,100396.92
2024-05-09T13:42:31.585Z,100398.63
2024-05-09T13:43:33.935Z,100401.11
2024-05-09T13:44:36.349Z,100404.61
2024-05-09T13:45:38.866Z,100396.06
2024-05-09T13:46:41.307Z,100400.09
2024-05-09T13:47:43.973Z,100400.88
2024-05-09T13:48:46.329Z,100401.72
2024-05-09T13:49:48.707Z,100401.23
2024-05-09T13:50:51.248Z,100395.91
2024-05-09T13:51:53.717Z,100394.42
2024-05-09T13:52:57.783Z,100396.81
2024-05-09T13:54:00.161Z,100394.75
2024-05-09T13:55:04.286Z,100391.16
2024-05-09T13:56:06.657Z,100386.73
2024-05-09T13:57:09.132Z,100390.95
2024-05-09T13:58:13.286Z,100386.36
2024-05-09T13:59:15.645Z,100387.91
2024-05-09T14:00:26.962Z,100381.70
2024-05-09T14:01:23.811Z,100384.42
2024-05-09T14:02:27.826Z,100381.46
2024-05-09T14:03:31.722Z,100385.04
2024-05-09T14:04:35.698Z,100379.92
2024-05-09T14:05:38.065Z,100373.36
2024-05-09T14:06:40.416Z,100376.38
2024-05-09T14:07:44.542Z,100370.19
2024-05-09T14:08:48.526Z,100368.81
2024-05-09T14:09:50.947Z,100367.98
2024-05-09T14:10:53.429Z,100369.95
2024-05-09T14:11:57.488Z,100369.36
2024-05-09T14:13:00.039Z,100368.75
2024-05-09T14:14:02.454Z,100367.39
2024-05-09T14:15:04.953Z,100367.45
2024-05-09T14:16:07.491Z,100360.56
2024-05-09T14:17:09.931Z,100362.58
2024-05-09T14:18:13.550Z,100367.42
2024-05-09T14:19:14.957Z,100360.52
2024-05-09T14:20:23.431Z,100367.37
2024-05-09T14:21:20.036Z,100365.11
2024-05-09T14:22:22.528Z,100361.65
2024-05-09T14:23:24.965Z,100361.50
2024-05-09T14:24:29.226Z,100359.20
2024-05-09T14:25:34.611Z,100358.95
2024-05-09T14:26:35.538Z,100362.48
2024-05-09T14:27:38.040Z,100361.58
2024-05-09T14:28:40.540Z,100360.62
2024-05-09T14:29:43.085Z,100352.86
2024-05-09T14:30:45.635Z,100354.70
2024-05-09T14:31:48.150Z,100353.09
2024-05-09T14:32:50.645Z,100347.45
2024-05-09T14:33:53.211Z,100350.44
2024-05-09T14:34:55.618Z,100347.89
2024-05-09T14:35:59.664Z,100346.98
2024-05-09T14:37:02.258Z,100343.73
2024-05-09T14:38:06.289Z,100338.71
2024-05-09T14:39:08.660Z,100340.73
2024-05-09T14:40:21.519Z,100344.33
2024-05-09T14:41:13.681Z,100344.03
2024-05-09T14:42:16.182Z,100343.47
2024-05-09T14:43:20.392Z,100342.24
2024-05-09T14:44:24.329Z,100341.98
2024-05-09T14:45:26.721Z,100338.96
2024-05-09T14:46:30.864Z,100338.77
2024-05-09T14:47:33.353Z,100337.28
2024-05-09T14:48:35.837Z,100340.38
2024-05-09T14:49:40.178Z,100343.44
2024-05-09T14:50:42.523Z,100338.78
2024-05-09T14:51:46.638Z,100339.48
2024-05-09T14:52:50.656Z,100336.39
2024-05-09T14:53:54.614Z,100333.47
2024-05-09T14:55:00.183Z,100330.27
2024-05-09T14:56:01.037Z,100332.86
2024-05-09T14:57:05.103Z,100334.02
2024-05-09T14:58:07.674Z,100335.67
2024-05-09T14:59:10.021Z,100331.97
2024-05-09T15:00:17.513Z,100324.39
2024-05-09T15:01:16.763Z,100329.94
2024-05-09T15:02:19.540Z,100331.12
2024-05-09T15:03:22.293Z,100333.27
2024-05-09T15:04:25.991Z,100332.58
2024-05-09T15:05:28.239Z,100328.23
2024-05-09T15:06:32.339Z,100325.61
2024-05-09T15:07:36.290Z,100327.55
2024-05-09T15:08:38.720Z,100327.47
2024-05-09T15:09:41.169Z,100329.66
2024-05-09T15:10:43.697Z,100326.23
2024-05-09T15:11:46.106Z,100328.00
2024-05-09T15:12:50.277Z,100319.75
2024-05-09T15:13:52.558Z,100313.69
2024-05-09T15:14:57.936Z,100311.84
2024-05-09T15:16:01.900Z,100314.91
2024-05-09T15:17:04.244Z,100310.22
2024-05-09T15:18:06.999Z,100306.69
2024-05-09T15:19:09.425Z,100307.95
2024-05-09T15:20:16.930Z,100303.94
2024-05-09T15:21:14.506Z,100308.41
2024-05-09T15:22:17.054Z,100302.02
2024-05-09T15:23:19.513Z,100300.64
2024-05-09T15:24:22.020Z,100297.22
2024-05-09T15:25:24.626Z,100296.20
2024-05-09T15:26:27.059Z,100293.98
2024-05-09T15:27:31.271Z,100290.95
2024-05-09T15:28:33.624Z,100294.72
2024-05-09T15:29:36.187Z,100291.00
2024-05-09T15:30:41.341Z,100295.10
2024-05-09T15:31:42.639Z,100291.13
2024-05-09T15:32:44.979Z,100297.66
2024-05-09T15:33:49.082Z,100294.93
2024-05-09T15:34:53.023Z,100294.05
2024-05-09T15:35:57.000Z,100296.07
2024-05-09T15:36:59.397Z,100291.80
2024-05-09T15:38:03.881Z,100295.40
2024-05-09T15:47:34.679Z,100290.05
2024-05-09T15:48:39.777Z,100288.13
2024-05-09T15:49:41.202Z,100287.40
2024-05-09T15:50:44.076Z,100287.22
2024-05-09T15:51:46.137Z,100285.90
2024-05-09T15:52:48.634Z,100282.59
2024-05-09T16:02:23.411Z,100282.13
2024-05-09T16:03:25.936Z,100281.46
2024-05-09T16:04:28.633Z,100284.64
2024-05-09T16:05:31.000Z,100281.36
2024-05-09T16:06:33.467Z,100278.33
2024-05-09T16:07:36.005Z,100279.81
2024-05-09T16:08:38.502Z,100279.00
2024-05-09T16:09:41.050Z,100281.84
2024-05-09T16:10:44.403Z,100279.19
2024-05-09T16:11:46.116Z,100280.02
2024-05-09T16:12:48.598Z,100278.39
2024-05-09T16:13:51.115Z,100278.46
2024-05-09T16:14:53.592Z,100282.31
2024-05-09T16:15:56.150Z,100276.20
2024-05-09T16:16:58.641Z,100276.80
2024-05-09T16:18:01.170Z,100284.20
2024-05-09T16:19:03.637Z,100277.11
2024-05-09T16:20:09.270Z,100281.06
2024-05-09T16:21:08.598Z,100277.03
2024-05-09T16:22:11.264Z,100276.67
2024-05-09T16:23:13.558Z,100277.21
2024-05-09T16:24:16.072Z,100276.59
2024-05-09T16:25:18.967Z,100278.83
2024-05-09T16:26:21.069Z,100280.11
2024-05-09T16:27:23.500Z,100273.14
2024-05-09T16:28:26.919Z,100281.23
2024-05-09T16:29:28.607Z,100276.67
2024-05-09T16:30:34.051Z,100274.95
2024-05-09T16:31:33.674Z,100274.13
2024-05-09T16:32:36.200Z,100272.67
2024-05-09T16:33:38.698Z,100273.43
2024-05-09T16:34:41.174Z,100275.27
2024-05-09T16:35:43.592Z,100272.13
2024-05-09T16:36:46.268Z,100269.30
2024-05-09T16:37:48.683Z,100267.42
2024-05-09T16:38:52.732Z,100269.48
2024-05-09T16:39:56.805Z,100266.91
2024-05-09T16:41:00.865Z,100269.15
2024-05-09T16:42:03.157Z,100264.75
2024-05-09T16:43:07.694Z,100263.05
2024-05-09T16:44:09.661Z,100265.14
2024-05-09T16:45:12.147Z,100257.23
2024-05-09T16:46:14.667Z,100262.16
2024-05-09T16:47:17.230Z,100258.28
2024-05-09T16:48:21.314Z,100257.86
2024-05-09T16:49:23.685Z,100254.44
2024-05-09T16:50:31.441Z,100256.32
2024-05-09T16:51:31.757Z,100254.52
2024-05-09T16:52:34.176Z,100255.80
2024-05-09T16:53:36.683Z,100255.57
2024-05-09T16:54:39.216Z,100256.94
2024-05-09T16:55:43.363Z,100255.83
2024-05-09T16:56:45.686Z,100255.33
2024-05-09T16:57:48.156Z,100251.59
2024-05-09T16:58:50.638Z,100253.41
2024-05-09T16:59:54.748Z,100248.49
2024-05-09T17:00:57.162Z,100251.05
2024-05-09T17:02:01.270Z,100249.18
2024-05-09T17:03:03.547Z,100253.02
2024-05-09T17:04:06.154Z,100260.32
2024-05-09T17:05:08.475Z,100253.82
2024-05-09T17:06:10.931Z,100255.08
2024-05-09T17:07:15.054Z,100257.89
2024-05-09T17:08:17.348Z,100248.88
2024-05-09T17:09:20.272Z,100254.81
2024-05-09T17:10:26.550Z,100258.02
2024-05-09T17:11:24.852Z,100252.41
2024-05-09T17:12:28.919Z,100252.78
2024-05-09T17:13:31.585Z,100254.70
2024-05-09T17:14:35.614Z,100255.34
2024-05-09T17:15:38.149Z,100253.89
2024-05-09T17:16:40.562Z,100253.88
2024-05-09T17:17:44.688Z,100260.40
2024-05-09T17:18:46.990Z,100257.48
2024-05-09T17:19:49.520Z,100252.75
2024-05-09T17:20:53.715Z,100255.69
2024-05-09T17:21:56.664Z,100255.67
2024-05-09T17:22:59.078Z,100253.55
2024-05-09T17:24:01.572Z,100249.66
2024-05-09T17:25:05.212Z,100251.00
2024-05-09T17:26:07.575Z,100253.59
2024-05-09T17:27:10.040Z,100251.86
2024-05-09T17:28:13.615Z,100250.75
2024-05-09T17:29:15.954Z,100249.98
2024-05-09T17:30:24.495Z,100251.75
2024-05-09T17:31:22.610Z,100253.47
2024-05-09T17:32:26.634Z,100250.45
2024-05-09T17:33:28.904Z,100246.66
2024-05-09T17:34:33.136Z,100254.84
2024-05-09T17:35:36.930Z,100251.63
2024-05-09T17:36:40.829Z,100253.78
2024-05-09T17:37:43.198Z,100247.13
2024-05-09T17:38:45.710Z,100246.57
2024-05-09T17:39:48.337Z,100248.05
2024-05-09T17:40:51.058Z,100250.84
2024-05-09T17:41:53.285Z,100251.36
2024-05-09T17:42:55.839Z,100253.20
2024-05-09T17:43:58.331Z,100253.20
2024-05-09T17:45:00.987Z,100245.70
2024-05-09T17:46:03.390Z,100246.89
2024-05-09T17:47:05.994Z,100244.93
2024-05-09T17:48:08.698Z,100247.86
2024-05-09T17:49:10.918Z,100249.28
2024-05-09T17:50:20.740Z,100248.02
2024-05-09T17:51:17.283Z,100246.38
2024-05-09T17:52:21.665Z,100247.71
2024-05-09T17:53:25.364Z,100241.88
2024-05-09T17:54:29.653Z,100243.50
2024-05-09T17:55:32.264Z,100240.25
2024-05-09T17:56:34.446Z,100238.26
2024-05-09T17:57:36.953Z,100243.61
2024-05-09T17:58:40.950Z,100241.48
2024-05-09T17:59:44.853Z,100252.26
2024-05-09T18:00:47.257Z,100246.81
2024-05-09T18:01:49.676Z,100249.85
2024-05-09T18:02:52.199Z,100244.71
2024-05-09T18:03:54.862Z,100250.38
2024-05-09T18:04:57.044Z,100249.97
2024-05-09T18:06:01.102Z,100251.47
2024-05-09T18:07:03.410Z,100252.41
2024-05-09T18:08:05.879Z,100248.42
2024-05-09T18:09:08.255Z,100249.48
2024-05-09T18:10:16.002Z,100255.78
2024-05-09T18:11:14.755Z,100248.44
2024-05-09T18:12:18.681Z,100246.20
2024-05-09T18:13:21.083Z,100247.27
2024-05-09T18:14:23.399Z,100249.55
2024-05-09T18:15:25.863Z,100252.45
2024-05-09T18:16:28.339Z,100245.45
2024-05-09T18:17:30.986Z,100242.88
2024-05-09T18:18:34.994Z,100244.25
2024-05-09T18:19:37.313Z,100242.52